createdAt,value
2018-06-13T00:01:56.898Z,99294.09
2018-06-13T00:04:24.549Z,99301.27
2018-06-13T00:06:52.198Z,99301.84
2018-06-13T00:09:19.939Z,99293.59
2018-06-13T00:11:47.650Z,99287.81
2018-06-13T00:14:15.402Z,99289.59
2018-06-13T00:16:43.109Z,99287.72
2018-06-13T00:19:10.842Z,99283.47
2018-06-13T00:21:38.555Z,99283.63
2018-06-13T00:24:06.482Z,99281.42
2018-06-13T00:26:34.213Z,99290.31
2018-06-13T00:29:02.022Z,99281.34
2018-06-13T00:31:29.717Z,99271.93
2018-06-13T00:33:57.434Z,99278.55
2018-06-13T00:36:25.126Z,99271.48
2018-06-13T00:38:52.805Z,99277.50
2018-06-13T00:41:20.457Z,99276.51
2018-06-13T00:43:48.109Z,99281.64
2018-06-13T00:46:15.822Z,99276.54
2018-06-13T00:48:43.510Z,99271.19
2018-06-13T00:51:11.253Z,99277.77
2018-06-13T00:53:38.988Z,99274.92
2018-06-13T00:56:24.237Z,99281.08
2018-06-13T00:58:52.119Z,99275.88
2018-06-13T01:01:19.850Z,99276.80
2018-06-13T01:03:47.636Z,99276.44
2018-06-13T01:06:15.468Z,99273.64
2018-06-13T01:08:43.221Z,99278.55
2018-06-13T01:11:10.866Z,99279.71
2018-06-13T01:13:38.758Z,99285.48
2018-06-13T01:16:06.388Z,99283.05
2018-06-13T01:18:34.148Z,99279.08
2018-06-13T01:21:01.843Z,99279.13
2018-06-13T01:23:29.484Z,99287.20
2018-06-13T01:25:57.207Z,99277.99
2018-06-13T01:28:24.900Z,99274.36
2018-06-13T01:30:52.660Z,99277.03
2018-06-13T01:33:20.310Z,99268.09
2018-06-13T01:35:48.109Z,99263.08
2018-06-13T01:38:15.723Z,99264.33
2018-06-13T01:40:43.384Z,99258.90
2018-06-13T01:43:11.039Z,99256.54
2018-06-13T01:45:38.751Z,99263.73
2018-06-13T01:48:06.427Z,99257.20
2018-06-13T01:50:34.171Z,99253.56
2018-06-13T01:53:01.787Z,99256.82
2018-06-13T01:55:29.529Z,99249.36
2018-06-13T01:57:57.233Z,99252.59
2018-06-13T02:00:24.908Z,99250.57
2018-06-13T02:02:52.603Z,99249.09
2018-06-13T02:05:20.298Z,99256.72
2018-06-13T02:07:48.017Z,99260.16
2018-06-13T02:10:15.693Z,99266.50
2018-06-13T02:12:43.336Z,99262.09
2018-06-13T02:15:10.972Z,99263.20
2018-06-13T02:17:38.648Z,99261.80
2018-06-13T02:20:06.383Z,99266.11
2018-06-13T02:22:34.259Z,99264.06
2018-06-13T02:25:02.012Z,99262.58
2018-06-13T02:27:29.762Z,99273.45
2018-06-13T02:29:57.488Z,99269.05
2018-06-13T02:32:25.142Z,99266.34
2018-06-13T02:34:52.802Z,99259.48
2018-06-13T02:37:20.504Z,99266.41
2018-06-13T02:39:48.250Z,99266.21
2018-06-13T02:42:15.903Z,99251.54
2018-06-13T02:44:43.731Z,99272.15
2018-06-13T02:47:11.409Z,99264.19
2018-06-13T02:49:38.997Z,99266.16
2018-06-13T02:52:06.725Z,99272.00
2018-06-13T02:54:34.427Z,99271.54
2018-06-13T02:57:02.141Z,99269.56
2018-06-13T02:59:29.843Z,99267.19
2018-06-13T03:01:57.821Z,99270.41
2018-06-13T03:04:25.523Z,99272.59
2018-06-13T03:06:53.237Z,99274.41
2018-06-13T03:09:21.291Z,99278.16
2018-06-13T03:11:49.233Z,99278.66
2018-06-13T03:14:17.000Z,99280.47
2018-06-13T03:16:44.790Z,99276.06
2018-06-13T03:19:12.494Z,99272.72
2018-06-13T03:21:40.492Z,99275.07
2018-06-13T03:24:08.222Z,99272.52
2018-06-13T03:26:36.314Z,99278.58
2018-06-13T03:29:04.112Z,99285.73
2018-06-13T03:31:31.880Z,99287.16
2018-06-13T03:33:59.612Z,99284.63
2018-06-13T03:36:27.397Z,99293.69
2018-06-13T03:38:55.150Z,99293.80
2018-06-13T03:41:22.876Z,99306.09
2018-06-13T03:43:50.618Z,99305.09
2018-06-13T03:46:18.320Z,99305.05
2018-06-13T03:48:45.978Z,99311.11
2018-06-13T03:51:13.762Z,99315.00
2018-06-13T03:53:41.446Z,99319.41
2018-06-13T03:56:09.170Z,99317.16
2018-06-13T03:58:36.883Z,99322.00
2018-06-13T04:01:04.569Z,99323.66
2018-06-13T04:03:32.309Z,99312.80
2018-06-13T04:05:59.989Z,99318.06
2018-06-13T04:08:27.857Z,99325.55
2018-06-13T04:10:55.578Z,99321.06
2018-06-13T04:13:24.153Z,99321.23
2018-06-13T04:15:51.802Z,99324.22
2018-06-13T04:20:54.302Z,99322.73
2018-06-13T04:23:21.976Z,99325.70
2018-06-13T04:25:49.731Z,99332.63
2018-06-13T04:28:17.947Z,99330.98
2018-06-13T04:30:45.680Z,99334.62
2018-06-13T04:33:13.356Z,99331.81
2018-06-13T04:35:41.164Z,99347.02
2018-06-13T04:38:08.765Z,99340.91
2018-06-13T04:40:36.441Z,99336.95
2018-06-13T04:43:04.177Z,99339.44
2018-06-13T04:45:31.805Z,99339.23
2018-06-13T04:47:59.376Z,99343.73
2018-06-13T04:50:27.042Z,99344.06
2018-06-13T04:52:54.741Z,99354.97
2018-06-13T04:55:22.365Z,99350.00
2018-06-13T04:57:50.037Z,99353.63
2018-06-13T05:00:17.682Z,99358.44
2018-06-13T05:02:45.278Z,99360.48
2018-06-13T05:05:12.837Z,99346.47
2018-06-13T05:07:40.455Z,99365.44
2018-06-13T05:10:08.000Z,99365.37
2018-06-13T05:12:35.598Z,99369.74
2018-06-13T05:15:03.272Z,99363.16
2018-06-13T05:17:30.920Z,99367.09
2018-06-13T05:19:58.582Z,99363.47
2018-06-13T05:22:26.222Z,99363.63
2018-06-13T05:24:53.901Z,99365.86
2018-06-13T05:27:21.577Z,99364.83
2018-06-13T05:29:49.345Z,99364.54
2018-06-13T05:32:17.025Z,99365.81
2018-06-13T05:34:44.633Z,99368.60
2018-06-13T05:37:12.287Z,99366.50
2018-06-13T05:39:39.910Z,99356.29
2018-06-13T05:42:07.511Z,99361.22
2018-06-13T05:44:35.307Z,99358.34
2018-06-13T05:47:02.921Z,99366.01
2018-06-13T05:49:30.521Z,99364.87
2018-06-13T05:51:58.185Z,99364.56
2018-06-13T05:54:25.762Z,99364.15
2018-06-13T05:56:53.390Z,99373.39
2018-06-13T05:59:20.990Z,99366.86
2018-06-13T06:01:48.598Z,99368.70
2018-06-13T06:04:16.250Z,99368.17
2018-06-13T06:06:43.872Z,99368.19
2018-06-13T06:09:12.285Z,99371.34
2018-06-13T06:11:40.037Z,99375.88
2018-06-13T06:14:07.658Z,99378.40
2018-06-13T06:16:35.326Z,99379.82
2018-06-13T06:19:03.034Z,99358.18
2018-06-13T06:21:30.700Z,99376.63
2018-06-13T06:23:58.311Z,99374.66
2018-06-13T06:26:25.926Z,99374.11
2018-06-13T06:28:53.510Z,99378.91
2018-06-13T06:31:21.210Z,99379.09
2018-06-13T06:33:49.186Z,99376.78
2018-06-13T06:36:16.873Z,99377.41
2018-06-13T06:38:44.520Z,99378.95
2018-06-13T06:41:12.137Z,99382.39
2018-06-13T06:43:39.752Z,99380.89
2018-06-13T06:46:07.425Z,99398.61
2018-06-13T06:48:35.137Z,99389.84
2018-06-13T06:51:02.701Z,99398.13
2018-06-13T06:53:30.281Z,99390.81
2018-06-13T06:55:57.973Z,99398.20
2018-06-13T06:58:25.598Z,99405.38
2018-06-13T07:00:53.169Z,99393.80
2018-06-13T07:03:21.873Z,99397.09
2018-06-13T07:05:49.481Z,99404.49
2018-06-13T07:08:17.160Z,99403.20
2018-06-13T07:10:44.769Z,99397.55
2018-06-13T07:13:12.405Z,99401.07
2018-06-13T07:15:40.059Z,99405.43
2018-06-13T07:18:07.678Z,99399.00
2018-06-13T07:20:35.392Z,99401.26
2018-06-13T07:23:03.090Z,99397.83
2018-06-13T07:25:30.712Z,99399.74
2018-06-13T07:27:58.437Z,99399.34
2018-06-13T07:30:26.052Z,99397.34
2018-06-13T07:32:53.684Z,99396.62
2018-06-13T07:35:21.328Z,99384.00
2018-06-13T07:37:48.965Z,99399.16
2018-06-13T07:40:16.638Z,99407.10
2018-06-13T07:42:44.324Z,99415.81
2018-06-13T07:45:11.973Z,99415.42
2018-06-13T07:47:39.611Z,99416.25
2018-06-13T07:50:07.213Z,99422.11
2018-06-13T07:52:34.869Z,99418.26
2018-06-13T07:55:02.510Z,99431.77
2018-06-13T07:57:30.161Z,99423.22
2018-06-13T07:59:57.743Z,99426.79
2018-06-13T08:02:25.412Z,99428.44
2018-06-13T08:04:53.064Z,99434.91
2018-06-13T08:07:20.703Z,99433.76
2018-06-13T08:09:48.422Z,99439.94
2018-06-13T08:12:16.066Z,99433.95
2018-06-13T08:14:43.712Z,99440.41
2018-06-13T08:17:11.329Z,99435.22
2018-06-13T08:19:38.956Z,99435.64
2018-06-13T08:22:06.584Z,99432.72
2018-06-13T08:24:53.513Z,99437.78
2018-06-13T08:27:21.374Z,99434.44
2018-06-13T08:29:48.984Z,99435.13
2018-06-13T08:32:16.730Z,99435.14
2018-06-13T08:34:44.352Z,99440.95
2018-06-13T08:37:12.015Z,99441.62
2018-06-13T08:39:39.720Z,99442.51
2018-06-13T08:42:07.466Z,99441.62
2018-06-13T08:44:35.274Z,99439.75
2018-06-13T08:47:03.046Z,99436.08
2018-06-13T08:49:30.640Z,99440.53
2018-06-13T08:51:58.248Z,99443.04
2018-06-13T08:54:25.868Z,99441.02
2018-06-13T08:56:53.511Z,99436.92
2018-06-13T08:59:21.114Z,99432.66
2018-06-13T09:01:48.741Z,99431.94
2018-06-13T09:04:16.419Z,99431.91
2018-06-13T09:06:44.040Z,99433.34
2018-06-13T09:09:11.693Z,99432.90
2018-06-13T09:11:39.292Z,99432.09
2018-06-13T09:14:06.911Z,99433.63
2018-06-13T09:16:34.579Z,99434.91
2018-06-13T09:19:02.175Z,99432.81
2018-06-13T09:21:29.872Z,99435.52
2018-06-13T09:23:57.472Z,99438.34
2018-06-13T09:26:25.143Z,99434.95
2018-06-13T09:28:52.825Z,99442.13
2018-06-13T09:31:20.523Z,99445.17
2018-06-13T09:33:48.110Z,99447.55
2018-06-13T09:36:15.875Z,99448.73
2018-06-13T09:38:43.438Z,99447.45
2018-06-13T09:41:11.132Z,99442.91
2018-06-13T09:43:38.709Z,99443.73
2018-06-13T09:46:11.864Z,99452.84
2018-06-13T09:48:34.016Z,99445.53
2018-06-13T09:51:01.741Z,99456.19
2018-06-13T09:53:29.616Z,99453.96
2018-06-13T09:55:57.356Z,99452.57
2018-06-13T09:58:25.046Z,99442.84
2018-06-13T10:00:58.623Z,99455.69
2018-06-13T10:03:27.388Z,99439.22
2018-06-13T10:05:55.342Z,99450.77
2018-06-13T10:08:23.300Z,99453.64
2018-06-13T10:10:51.391Z,99458.66
2018-06-13T10:13:19.110Z,99453.69
2018-06-13T10:15:46.822Z,99456.67
2018-06-13T10:18:14.768Z,99456.09
2018-06-13T10:20:42.863Z,99453.45
2018-06-13T10:23:10.750Z,99441.78
2018-06-13T10:25:38.799Z,99455.13
2018-06-13T10:28:07.732Z,99450.17
2018-06-13T10:30:35.874Z,99447.59
2018-06-13T10:33:03.827Z,99450.25
2018-06-13T10:35:31.934Z,99451.34
2018-06-13T10:38:00.810Z,99463.29
2018-06-13T10:40:28.880Z,99462.73
2018-06-13T10:42:58.896Z,99452.61
2018-06-13T10:45:27.196Z,99456.25
2018-06-13T10:47:56.422Z,99435.08
2018-06-13T10:50:24.510Z,99450.77
2018-06-13T10:52:53.236Z,99452.52
2018-06-13T10:55:21.603Z,99458.69
2018-06-13T10:57:50.092Z,99451.35
2018-06-13T11:00:18.378Z,99453.84
2018-06-13T11:02:46.593Z,99445.59
2018-06-13T11:05:14.950Z,99457.63
2018-06-13T11:07:43.018Z,99453.95
2018-06-13T11:10:11.454Z,99455.11
2018-06-13T11:12:39.661Z,99449.17
2018-06-13T11:15:07.674Z,99451.72
2018-06-13T11:17:35.763Z,99451.40
2018-06-13T11:20:05.006Z,99465.22
2018-06-13T11:22:33.088Z,99457.58
2018-06-13T11:25:01.040Z,99452.98
2018-06-13T11:27:29.070Z,99461.11
2018-06-13T11:29:57.312Z,99462.03
2018-06-13T11:32:25.432Z,99460.06
2018-06-13T11:34:57.796Z,99468.77
2018-06-13T11:37:26.876Z,99461.92
2018-06-13T11:39:55.636Z,99460.11
2018-06-13T11:42:23.673Z,99455.41
2018-06-13T11:44:51.807Z,99454.64
2018-06-13T11:47:19.737Z,99462.56
2018-06-13T11:49:47.647Z,99455.02
2018-06-13T11:52:15.787Z,99447.70
2018-06-13T11:54:43.725Z,99444.34
2018-06-13T11:57:11.799Z,99448.94
2018-06-13T11:59:39.879Z,99451.83
2018-06-13T12:02:08.345Z,99444.81
2018-06-13T12:04:36.580Z,99442.38
2018-06-13T12:07:04.838Z,99446.30
2018-06-13T12:09:32.746Z,99453.03
2018-06-13T12:12:00.733Z,99444.55
2018-06-13T12:14:28.661Z,99446.61
2018-06-13T12:16:56.945Z,99459.44
2018-06-13T12:19:25.082Z,99453.42
2018-06-13T12:21:53.102Z,99448.56
2018-06-13T12:24:21.066Z,99455.83
2018-06-13T12:26:48.898Z,99471.22
2018-06-13T12:29:16.985Z,99448.05
2018-06-13T12:31:44.893Z,99455.59
2018-06-13T12:34:12.913Z,99460.30
2018-06-13T12:36:40.892Z,99448.41
2018-06-13T12:39:10.342Z,99454.02
2018-06-13T12:41:38.232Z,99475.19
2018-06-13T12:44:06.107Z,99443.05
2018-06-13T12:46:34.821Z,99455.30
2018-06-13T12:49:02.860Z,99458.88
2018-06-13T12:51:30.905Z,99465.38
2018-06-13T12:53:58.720Z,99460.78
2018-06-13T12:56:26.365Z,99457.02
2018-06-13T12:58:54.090Z,99459.44
2018-06-13T13:01:21.740Z,99456.27
2018-06-13T13:03:49.359Z,99461.16
2018-06-13T13:06:17.067Z,99458.59
2018-06-13T13:08:44.726Z,99462.55
2018-06-13T13:11:12.447Z,99460.63
2018-06-13T13:13:40.063Z,99456.91
2018-06-13T13:16:07.724Z,99465.16
2018-06-13T13:18:35.366Z,99457.57
2018-06-13T13:21:03.001Z,99460.16
2018-06-13T13:23:30.593Z,99463.30
2018-06-13T13:25:58.287Z,99462.73
2018-06-13T13:28:25.931Z,99463.33
2018-06-13T13:30:53.679Z,99464.75
2018-06-13T13:33:21.372Z,99477.45
2018-06-13T13:35:49.045Z,99471.25
2018-06-13T13:38:16.669Z,99478.11
2018-06-13T13:40:44.911Z,99470.62
2018-06-13T13:43:12.517Z,99472.95
2018-06-13T13:45:40.407Z,99475.61
2018-06-13T13:48:08.008Z,99469.22
2018-06-13T13:50:35.675Z,99477.20
2018-06-13T13:53:03.465Z,99484.67
2018-06-13T13:55:31.337Z,99484.53
2018-06-13T13:57:59.033Z,99487.98
2018-06-13T14:00:26.650Z,99488.23
2018-06-13T14:02:54.278Z,99493.94
2018-06-13T14:05:21.968Z,99484.88
2018-06-13T14:07:49.577Z,99486.42
2018-06-13T14:10:17.225Z,99489.05
2018-06-13T14:12:44.900Z,99490.31
2018-06-13T14:15:12.610Z,99490.26
2018-06-13T14:17:40.244Z,99497.55
2018-06-13T14:20:07.988Z,99505.89
2018-06-13T14:22:36.231Z,99512.63
2018-06-13T14:25:04.037Z,99505.89
2018-06-13T14:27:32.044Z,99497.16
2018-06-13T14:29:59.741Z,99500.99
2018-06-13T14:32:27.426Z,99502.88
2018-06-13T14:34:55.041Z,99504.69
2018-06-13T14:37:22.858Z,99494.44
2018-06-13T14:39:50.874Z,99496.03
2018-06-13T14:42:19.242Z,99496.30
2018-06-13T14:44:46.951Z,99498.91
2018-06-13T14:47:15.707Z,99502.97
2018-06-13T14:49:43.371Z,99503.09
2018-06-13T14:52:11.063Z,99499.39
2018-06-13T14:54:38.785Z,99502.48
2018-06-13T14:57:06.561Z,99505.61
2018-06-13T14:59:34.318Z,99506.09
2018-06-13T15:02:01.990Z,99503.16
2018-06-13T15:04:32.066Z,99515.95
2018-06-13T15:07:00.197Z,99504.89
2018-06-13T15:09:27.882Z,99511.86
2018-06-13T15:11:55.560Z,99508.73
2018-06-13T15:14:23.364Z,99521.86
2018-06-13T15:16:51.109Z,99510.85
2018-06-13T15:19:18.850Z,99529.08
2018-06-13T15:21:46.732Z,99522.81
2018-06-13T15:24:14.778Z,99536.03
2018-06-13T15:26:42.771Z,99531.29
2018-06-13T15:29:10.854Z,99543.86
2018-06-13T15:31:38.716Z,99532.59
2018-06-13T15:34:06.540Z,99532.50
2018-06-13T15:36:34.518Z,99523.72
2018-06-13T15:39:02.714Z,99528.66
2018-06-13T15:41:30.585Z,99524.33
2018-06-13T15:43:58.697Z,99537.98
2018-06-13T15:46:26.880Z,99549.91
2018-06-13T15:48:57.469Z,99537.49
2018-06-13T15:51:26.889Z,99537.55
2018-06-13T15:53:54.750Z,99541.60
2018-06-13T15:56:23.350Z,99544.05
2018-06-13T15:58:51.263Z,99549.34
2018-06-13T16:01:19.432Z,99547.23
2018-06-13T16:03:47.425Z,99558.13
2018-06-13T16:06:15.367Z,99562.25
2018-06-13T16:08:43.259Z,99566.27
2018-06-13T16:11:15.469Z,99567.13
2018-06-13T16:13:43.489Z,99567.34
2018-06-13T16:16:11.263Z,99565.17
2018-06-13T16:18:39.159Z,99557.63
2018-06-13T16:21:07.106Z,99586.52
2018-06-13T16:23:35.027Z,99588.34
2018-06-13T16:26:02.824Z,99591.86
2018-06-13T16:28:31.056Z,99592.38
2018-06-13T16:30:58.942Z,99596.19
2018-06-13T16:33:26.670Z,99590.05
2018-06-13T16:35:54.585Z,99587.63
2018-06-13T16:38:22.258Z,99605.45
2018-06-13T16:40:50.224Z,99603.73
2018-06-13T16:43:18.166Z,99606.63
2018-06-13T16:45:46.095Z,99600.16
2018-06-13T16:48:13.989Z,99601.51
2018-06-13T16:50:58.239Z,99606.52
2018-06-13T16:53:58.617Z,99612.64
2018-06-13T16:56:26.593Z,99612.62
2018-06-13T16:58:55.541Z,99613.13
2018-06-13T17:01:23.791Z,99612.97
2018-06-13T17:03:53.087Z,99608.62
2018-06-13T17:06:21.291Z,99610.28
2018-06-13T17:08:49.194Z,99609.28
2018-06-13T17:11:18.186Z,99619.10
2018-06-13T17:13:46.397Z,99621.23
2018-06-13T17:16:14.550Z,99602.34
2018-06-13T17:18:42.701Z,99617.17
2018-06-13T17:21:10.606Z,99620.47
2018-06-13T17:23:38.633Z,99618.52
2018-06-13T17:26:06.741Z,99623.88
2018-06-13T17:28:34.909Z,99630.59
2018-06-13T17:31:03.266Z,99635.67
2018-06-13T17:33:32.031Z,99630.41
2018-06-13T17:35:59.958Z,99637.83
2018-06-13T17:38:28.093Z,99638.69
2018-06-13T17:40:57.492Z,99638.31
2018-06-13T17:43:25.365Z,99633.58
2018-06-13T17:45:53.385Z,99636.31
2018-06-13T17:48:21.240Z,99646.25
2018-06-13T17:50:50.136Z,99641.84
2018-06-13T17:53:17.974Z,99632.12
2018-06-13T17:55:46.118Z,99635.27
2018-06-13T17:58:14.084Z,99638.40
2018-06-13T18:00:42.212Z,99633.80
2018-06-13T18:03:10.543Z,99640.60
2018-06-13T18:05:39.937Z,99652.04
2018-06-13T18:08:08.376Z,99652.09
2018-06-13T18:10:36.394Z,99658.75
2018-06-13T18:13:04.308Z,99661.82
2018-06-13T18:15:32.398Z,99661.69
2018-06-13T18:18:00.406Z,99670.58
2018-06-13T18:20:28.118Z,99663.18
2018-06-13T18:22:55.966Z,99670.19
2018-06-13T18:25:23.619Z,99678.89
2018-06-13T18:27:51.475Z,99687.04
2018-06-13T18:30:19.187Z,99686.30
2018-06-13T18:32:47.568Z,99687.27
2018-06-13T18:35:15.236Z,99699.73
2018-06-13T18:37:43.022Z,99694.62
2018-06-13T18:40:10.729Z,99699.16
2018-06-13T18:42:38.466Z,99702.55
2018-06-13T18:45:06.586Z,99704.37
2018-06-13T18:47:34.523Z,99714.95
2018-06-13T18:50:02.374Z,99716.69
2018-06-13T18:52:30.166Z,99726.84
2018-06-13T18:54:58.005Z,99718.11
2018-06-13T18:57:25.733Z,99732.72
2018-06-13T18:59:53.436Z,99723.94
2018-06-13T19:02:21.139Z,99723.16
2018-06-13T19:04:48.930Z,99728.17
2018-06-13T19:07:16.872Z,99725.11
2018-06-13T19:09:44.705Z,99731.02
2018-06-13T19:12:12.413Z,99736.91
2018-06-13T19:14:40.089Z,99741.97
2018-06-13T19:17:07.797Z,99745.28
2018-06-13T19:19:35.731Z,99746.84
2018-06-13T19:22:03.519Z,99755.03
2018-06-13T19:24:31.369Z,99753.02
2018-06-13T19:26:59.131Z,99754.09
2018-06-13T19:29:27.014Z,99752.55
2018-06-13T19:31:54.778Z,99748.11
2018-06-13T19:34:22.706Z,99747.50
2018-06-13T19:36:50.425Z,99744.27
2018-06-13T19:39:18.191Z,99747.11
2018-06-13T19:41:46.078Z,99756.41
2018-06-13T19:44:13.697Z,99756.05
2018-06-13T19:46:41.428Z,99758.55
2018-06-13T19:49:09.138Z,99759.34
2018-06-13T19:51:36.869Z,99759.89
2018-06-13T19:54:10.339Z,99751.83
2018-06-13T19:56:38.018Z,99768.88
2018-06-13T19:59:06.021Z,99769.72
2018-06-13T20:01:33.671Z,99771.76
2018-06-13T20:04:06.994Z,99778.98
2018-06-13T20:06:37.545Z,99775.36
2018-06-13T20:09:08.275Z,99774.16
2018-06-13T20:11:36.104Z,99776.40
2018-06-13T20:14:09.666Z,99772.01
2018-06-13T20:16:51.456Z,99772.22
2018-06-13T20:19:25.079Z,99767.10
2018-06-13T20:21:54.100Z,99771.13
2018-06-13T20:24:21.741Z,99775.80
2018-06-13T20:26:55.138Z,99774.66
2018-06-13T20:29:28.601Z,99774.74
2018-06-13T20:31:56.343Z,99781.84
2018-06-13T20:34:23.974Z,99779.20
2018-06-13T20:36:51.650Z,99772.84
2018-06-13T20:39:19.318Z,99771.61
2018-06-13T20:41:46.980Z,99777.78
2018-06-13T20:44:14.684Z,99781.26
2018-06-13T20:46:42.988Z,99781.97
2018-06-13T20:49:10.714Z,99778.06
2018-06-13T20:51:38.436Z,99782.03
2018-06-13T20:54:06.794Z,99779.65
2018-06-13T20:56:35.664Z,99785.80
2018-06-13T20:59:03.597Z,99781.64
2018-06-13T21:01:31.286Z,99779.11
2018-06-13T21:03:59.521Z,99779.33
2018-06-13T21:06:28.320Z,99784.02
2018-06-13T21:08:56.098Z,99782.87
2018-06-13T21:11:23.838Z,99788.09
2018-06-13T21:13:51.524Z,99786.63
2018-06-13T21:16:19.350Z,99784.55
2018-06-13T21:18:47.520Z,99790.69
2018-06-13T21:21:15.215Z,99792.44
2018-06-13T21:23:42.904Z,99799.42
2018-06-13T21:26:10.542Z,99787.58
2018-06-13T21:28:38.259Z,99788.58
2018-06-13T21:31:05.917Z,99783.00
2018-06-13T21:33:33.536Z,99787.87
2018-06-13T21:36:01.437Z,99787.57
2018-06-13T21:38:29.308Z,99788.46
2018-06-13T21:40:56.928Z,99786.00
2018-06-13T21:43:24.572Z,99792.09
2018-06-13T21:45:52.281Z,99794.59
2018-06-13T21:48:19.957Z,99796.75
2018-06-13T21:50:47.676Z,99795.33
2018-06-13T21:53:15.331Z,99795.87
2018-06-13T21:55:42.969Z,99802.73
2018-06-13T21:58:10.565Z,99805.84
2018-06-13T22:00:38.207Z,99800.59
2018-06-13T22:03:05.855Z,99813.81
2018-06-13T22:05:34.123Z,99819.24
2018-06-13T22:08:01.843Z,99823.52
2018-06-13T22:10:29.438Z,99812.23
2018-06-13T22:12:57.075Z,99813.41
2018-06-13T22:15:26.343Z,99816.83
2018-06-13T22:17:55.619Z,99818.93
2018-06-13T22:20:23.429Z,99826.66
2018-06-13T22:22:51.339Z,99830.33
2018-06-13T22:25:18.963Z,99828.58
2018-06-13T22:27:46.610Z,99829.91
2018-06-13T22:30:14.445Z,99822.11
2018-06-13T22:32:42.170Z,99818.92
2018-06-13T22:35:09.838Z,99822.78
2018-06-13T22:37:37.526Z,99819.56
2018-06-13T22:40:05.543Z,99824.30
2018-06-13T22:42:33.259Z,99826.75
2018-06-13T22:45:00.910Z,99822.09
2018-06-13T22:47:28.595Z,99823.81
2018-06-13T22:49:56.330Z,99825.95
2018-06-13T22:52:25.134Z,99817.92
2018-06-13T22:54:52.953Z,99819.30
2018-06-13T22:57:20.562Z,99821.77
2018-06-13T22:59:48.226Z,99821.77
2018-06-13T23:02:15.873Z,99823.06
2018-06-13T23:04:43.474Z,99830.16
2018-06-13T23:07:11.125Z,99836.28
2018-06-13T23:09:39.089Z,99832.63
2018-06-13T23:12:06.691Z,99842.00
2018-06-13T23:14:34.461Z,99841.63
2018-06-13T23:17:02.103Z,99842.95
2018-06-13T23:19:29.873Z,99837.89
2018-06-13T23:21:57.569Z,99841.22
2018-06-13T23:24:25.265Z,99837.72
2018-06-13T23:26:52.968Z,99834.70
2018-06-13T23:29:20.607Z,99835.88
2018-06-13T23:31:48.255Z,99846.46
2018-06-13T23:34:15.871Z,99848.09
2018-06-13T23:36:43.549Z,99845.65
2018-06-13T23:39:11.326Z,99845.88
2018-06-13T23:41:39.011Z,99846.39
2018-06-13T23:44:06.668Z,99847.10
2018-06-13T23:46:34.622Z,99848.63
2018-06-13T23:49:02.526Z,99845.30
2018-06-13T23:51:30.101Z,99853.23
2018-06-13T23:53:57.804Z,99845.04
2018-06-13T23:56:25.494Z,99848.75
2018-06-13T23:58:53.221Z,99845.95
